Time;durP1;ratioP1;P1;durP2;ratioP2;P2;SDS_P1;SDS_P2;PMS_P1;PMS_P2;Temp;Humidity;BMP_temperature;BMP_pressure;BME280_temperature;BME280_humidity;BME280_pressure;Samples;Min_cycle;Max_cycle;Signal;HPM_P1;HPM_P2
2022/01/15 00:01:01;;;;;;;14.47;6.17;;;13.20;81.90;;;;;;5129896;29;20139;-31
2022/01/15 00:03:32;;;;;;;10.20;4.20;;;13.20;81.90;;;;;;5129600;29;20126;-32
2022/01/15 00:06:03;;;;;;;11.80;6.27;;;13.20;81.80;;;;;;5129581;29;20051;-32
2022/01/15 00:08:34;;;;;;;14.23;6.37;;;13.20;81.90;;;;;;5129275;29;20059;-30
2022/01/15 00:11:05;;;;;;;16.67;7.67;;;13.10;81.60;;;;;;5112396;29;20370;-30
2022/01/15 00:13:38;;;;;;;16.50;8.37;;;13.10;81.50;;;;;;5128943;28;20055;-30
2022/01/15 00:16:25;;;;;;;;;;;13.20;81.60;;;;;;5129594;29;20055;-31
2022/01/15 00:19:08;;;;;;;13.73;6.93;;;13.20;81.30;;;;;;5114553;29;20013;-31
2022/01/15 00:21:39;;;;;;;18.83;7.03;;;13.10;81.30;;;;;;5129731;29;20047;-31
2022/01/15 00:24:10;;;;;;;12.50;6.33;;;13.10;81.20;;;;;;5112434;29;20382;-32
2022/01/15 00:26:41;;;;;;;14.37;6.03;;;13.10;81.00;;;;;;5111867;29;20058;-30
2022/01/15 00:29:12;;;;;;;19.47;9.17;;;13.10;81.10;;;;;;5128885;29;20055;-32
2022/01/15 00:31:43;;;;;;;14.90;9.13;;;13.10;80.90;;;;;;5129198;29;20047;-31
2022/01/15 00:34:14;;;;;;;16.50;7.73;;;13.10;80.90;;;;;;5129105;29;20543;-30
2022/01/15 00:36:45;;;;;;;13.40;5.43;;;13.10;80.90;;;;;;5111984;29;20047;-29
2022/01/15 00:39:16;;;;;;;14.40;6.40;;;13.10;80.90;;;;;;5127955;28;20409;-31
2022/01/15 00:41:47;;;;;;;16.13;7.53;;;13.10;80.90;;;;;;5111459;29;20055;-32
2022/01/15 00:44:18;;;;;;;16.17;6.80;;;13.10;80.60;;;;;;5111943;29;20043;-32
2022/01/15 00:46:49;;;;;;;28.17;14.37;;;13.20;80.80;;;;;;5051844;29;20463;-29
2022/01/15 00:49:20;;;;;;;14.53;6.87;;;13.20;80.70;;;;;;5052286;29;20549;-30
2022/01/15 00:51:51;;;;;;;16.33;6.50;;;13.20;80.50;;;;;;5051986;29;20056;-29
2022/01/15 00:54:22;;;;;;;11.83;5.17;;;13.20;80.60;;;;;;5067263;29;20044;-29
2022/01/15 00:56:53;;;;;;;16.50;5.97;;;13.20;80.60;;;;;;5067600;29;20533;-29
2022/01/15 00:59:24;;;;;;;16.70;7.93;;;13.20;80.40;;;;;;5051914;29;20075;-31
2022/01/15 01:01:55;;;;;;;12.20;6.70;;;13.20;80.50;;;;;;5051628;29;20060;-29
2022/01/15 01:04:26;;;;;;;13.13;6.07;;;13.20;80.60;;;;;;5067226;29;20064;-30
2022/01/15 01:06:57;;;;;;;9.23;3.90;;;13.20;80.40;;;;;;5067206;29;20088;-30
2022/01/15 01:21:45;;;;;;;11.60;5.13;;;13.20;80.40;;;;;;5057657;29;20509;-32
2022/01/15 01:24:03;;;;;;;11.57;3.90;;;13.10;80.80;;;;;;5074990;29;20060;-30
2022/01/15 01:26:44;;;;;;;10.37;4.57;;;13.10;81.80;;;;;;5071057;29;20485;-32
2022/01/15 01:32:07;;;;;;;11.03;4.73;;;13.10;81.40;;;;;;5086246;29;20044;-31
2022/01/15 01:34:41;;;;;;;15.03;4.90;;;13.20;81.40;;;;;;5086291;29;20056;-30
2022/01/15 01:45:00;;;;;;;12.77;4.53;;;13.10;81.40;;;;;;5070063;29;20052;-30
2022/01/15 01:47:41;;;;;;;10.87;3.13;;;13.10;81.30;;;;;;5086218;29;20056;-31
2022/01/15 01:50:19;;;;;;;9.23;4.00;;;13.10;81.30;;;;;;5120368;29;20466;-31
2022/01/15 01:52:51;;;;;;;7.50;3.53;;;13.10;81.10;;;;;;5127809;29;20477;-31
2022/01/15 01:55:24;;;;;;;10.27;5.93;;;13.10;81.30;;;;;;5127362;29;20051;-31
2022/01/15 01:57:56;;;;;;;14.32;6.38;;;13.10;81.10;;;;;;5110137;29;20485;-31
2022/01/15 02:00:28;;;;;;;20.33;7.80;;;13.20;80.90;;;;;;5127718;29;20047;-29
2022/01/15 02:03:00;;;;;;;16.65;6.32;;;13.10;80.90;;;;;;5110268;29;20122;-31
2022/01/15 02:05:33;;;;;;;14.93;6.27;;;13.10;80.90;;;;;;5127231;29;20500;-30
2022/01/15 02:08:05;;;;;;;11.10;4.33;;;13.10;80.90;;;;;;5127207;29;20051;-31
2022/01/15 02:10:35;;;;;;;14.10;6.10;;;13.10;80.70;;;;;;5127726;29;20102;-31
2022/01/15 02:13:10;;;;;;;11.63;6.20;;;13.10;80.70;;;;;;5109867;29;20062;-30
2022/01/15 02:15:41;;;;;;;9.70;4.87;;;13.10;80.70;;;;;;5127041;29;20509;-30
2022/01/15 02:18:14;;;;;;;18.13;6.33;;;13.10;80.40;;;;;;5125586;29;20058;-29
2022/01/15 02:23:35;;;;;;;12.50;5.00;;;13.10;80.40;;;;;;5110208;29;20504;-31
2022/01/15 02:26:07;;;;;;;13.20;3.73;;;13.10;80.50;;;;;;5126929;29;20524;-31
2022/01/15 02:28:41;;;;;;;10.27;4.50;;;13.10;80.40;;;;;;5109577;29;20106;-32
2022/01/15 02:31:15;;;;;;;11.43;4.60;;;13.00;80.40;;;;;;5127130;29;20043;-32
2022/01/15 02:33:50;;;;;;;10.80;4.10;;;13.10;80.40;;;;;;5125535;29;20453;-31
2022/01/15 02:36:22;;;;;;;8.70;4.10;;;13.10;80.40;;;;;;5094660;29;20086;-31
2022/01/15 02:38:54;;;;;;;11.88;4.10;;;13.10;80.20;;;;;;5110402;29;20397;-30
2022/01/15 02:41:25;;;;;;;7.53;4.10;;;13.10;80.20;;;;;;5109992;29;20046;-30
2022/01/15 02:43:58;;;;;;;13.25;3.80;;;13.10;80.10;;;;;;5126723;29;20094;-32
2022/01/15 02:49:05;;;;;;;8.73;4.37;;;13.10;80.00;;;;;;5126610;29;20508;-29
2022/01/15 02:51:36;;;;;;;11.17;4.57;;;13.10;80.00;;;;;;5109799;29;20047;-30
2022/01/15 02:54:07;;;;;;;12.40;4.50;;;13.10;80.00;;;;;;5109556;29;20397;-31
2022/01/15 02:56:43;;;;;;;9.10;4.30;;;13.10;79.90;;;;;;5109209;29;20047;-30
2022/01/15 02:59:20;;;;;;;11.50;4.45;;;13.20;79.90;;;;;;5109734;29;20047;-31
2022/01/15 03:01:51;;;;;;;9.23;3.50;;;13.20;79.90;;;;;;5109835;28;20043;-31
2022/01/15 03:04:22;;;;;;;10.43;3.50;;;13.10;79.90;;;;;;5112823;29;20074;-30
2022/01/15 03:06:52;;;;;;;11.90;4.37;;;13.10;79.90;;;;;;5130924;29;20086;-30
2022/01/15 03:09:24;;;;;;;8.43;4.07;;;13.10;79.90;;;;;;5129471;29;20457;-30
2022/01/15 03:12:00;;;;;;;9.13;3.77;;;13.10;79.80;;;;;;5130343;29;20051;-32
2022/01/15 03:14:32;;;;;;;9.17;3.90;;;13.10;79.80;;;;;;5129887;29;20090;-31
2022/01/15 03:17:03;;;;;;;9.10;3.87;;;13.10;79.80;;;;;;5130587;29;20075;-31
2022/01/15 03:19:34;;;;;;;12.17;3.53;;;13.10;79.90;;;;;;5129202;29;20083;-30
2022/01/15 03:22:05;;;;;;;8.67;3.77;;;13.10;79.90;;;;;;5130371;29;20129;-31
2022/01/15 03:24:36;;;;;;;8.93;3.97;;;13.10;80.00;;;;;;5130201;29;20047;-29
2022/01/15 03:27:07;;;;;;;11.30;4.00;;;13.10;79.90;;;;;;5130224;29;20050;-31
2022/01/15 03:29:38;;;;;;;9.53;3.50;;;13.10;79.90;;;;;;5112890;29;20047;-32
2022/01/15 03:32:09;;;;;;;12.60;5.57;;;13.10;79.90;;;;;;5130412;29;20089;-30
2022/01/15 03:34:40;;;;;;;11.23;4.13;;;13.10;79.90;;;;;;5113092;29;20449;-30
2022/01/15 03:37:11;;;;;;;10.77;4.47;;;13.10;79.90;;;;;;5107874;29;20059;-31
2022/01/15 03:39:43;;;;;;;11.30;3.43;;;13.10;80.00;;;;;;5108011;29;20056;-31
2022/01/15 03:42:14;;;;;;;11.47;4.47;;;13.10;80.00;;;;;;5092442;29;20484;-30
2022/01/15 03:44:46;;;;;;;11.00;4.13;;;13.10;80.10;;;;;;5107898;29;20486;-30
2022/01/15 03:47:17;;;;;;;10.10;4.47;;;13.10;80.20;;;;;;5107838;29;20134;-31
2022/01/15 03:49:49;;;;;;;10.93;3.83;;;13.10;80.20;;;;;;5091777;29;20082;-30
2022/01/15 03:52:19;;;;;;;9.27;4.07;;;13.10;80.40;;;;;;5107698;29;20086;-30
2022/01/15 03:54:51;;;;;;;10.77;3.90;;;13.00;80.50;;;;;;5107595;29;20051;-30
2022/01/15 03:57:22;;;;;;;12.53;3.43;;;13.10;80.60;;;;;;5107676;29;20055;-32
2022/01/15 03:59:53;;;;;;;8.10;4.00;;;13.00;80.60;;;;;;5091813;29;20107;-31
2022/01/15 04:02:24;;;;;;;10.87;4.80;;;13.00;80.70;;;;;;5107428;29;20494;-30
2022/01/15 04:04:55;;;;;;;9.70;4.50;;;13.00;80.60;;;;;;5107647;29;20051;-31
2022/01/15 04:07:26;;;;;;;9.77;3.87;;;13.10;80.50;;;;;;5112417;29;20063;-31
2022/01/15 04:09:57;;;;;;;10.70;3.93;;;13.10;80.50;;;;;;5129367;29;20374;-31
2022/01/15 04:12:28;;;;;;;9.90;4.33;;;13.10;80.70;;;;;;5129208;29;20051;-33
2022/01/15 04:14:59;;;;;;;12.70;4.60;;;13.10;80.60;;;;;;5129274;28;20098;-31
2022/01/15 04:17:30;;;;;;;12.87;4.67;;;13.10;80.60;;;;;;5129267;29;20496;-30
2022/01/15 04:20:01;;;;;;;11.83;4.20;;;13.10;80.70;;;;;;5112165;29;20461;-32
2022/01/15 04:22:34;;;;;;;9.15;3.78;;;13.00;81.00;;;;;;5129060;29;20050;-31
2022/01/15 04:25:05;;;;;;;9.37;3.67;;;13.00;81.50;;;;;;5129314;29;20051;-31
2022/01/15 04:27:37;;;;;;;7.93;3.60;;;13.00;81.60;;;;;;5129028;29;20047;-30
2022/01/15 04:30:09;;;;;;;8.43;3.40;;;13.00;81.50;;;;;;5129081;29;20043;-30
2022/01/15 04:32:40;;;;;;;11.10;3.87;;;13.00;81.30;;;;;;5129055;29;20401;-30
2022/01/15 04:35:12;;;;;;;10.00;3.70;;;13.10;81.30;;;;;;5111146;29;20074;-30
2022/01/15 04:37:51;;;;;;;10.03;4.07;;;13.10;81.20;;;;;;5128896;29;20051;-30
2022/01/15 04:40:22;;;;;;;11.23;3.83;;;13.10;81.20;;;;;;5129039;29;20502;-31
2022/01/15 04:42:53;;;;;;;12.57;4.40;;;13.10;81.20;;;;;;5129401;29;20039;-32
2022/01/15 04:45:24;;;;;;;11.60;4.37;;;13.10;81.20;;;;;;5129097;29;20481;-32
2022/01/15 04:47:55;;;;;;;14.93;4.97;;;13.10;81.10;;;;;;5128706;29;20050;-31
2022/01/15 04:50:26;;;;;;;9.97;4.67;;;13.10;81.20;;;;;;5128381;29;20139;-30
2022/01/15 04:52:57;;;;;;;10.07;4.90;;;13.10;81.20;;;;;;5128683;29;20118;-30
2022/01/15 04:55:28;;;;;;;13.67;5.00;;;13.10;81.00;;;;;;5110960;29;20051;-30
2022/01/15 04:57:59;;;;;;;9.97;4.67;;;13.10;81.10;;;;;;5128545;29;20106;-31
2022/01/15 05:00:30;;;;;;;10.03;4.83;;;13.10;81.10;;;;;;5128076;29;20054;-31
2022/01/15 05:03:01;;;;;;;11.37;5.07;;;13.10;80.80;;;;;;5128048;29;20043;-29
2022/01/15 05:05:32;;;;;;;10.27;5.10;;;13.10;81.10;;;;;;5128572;29;20047;-31
2022/01/15 05:08:05;;;;;;;12.73;4.80;;;13.00;81.50;;;;;;5128185;29;20058;-32
2022/01/15 05:10:37;;;;;;;10.53;4.30;;;13.00;81.80;;;;;;5123375;28;20055;-30
2022/01/15 05:13:08;;;;;;;10.13;4.07;;;12.90;81.90;;;;;;5121764;28;20122;-32
2022/01/15 05:15:39;;;;;;;13.73;4.90;;;12.90;81.90;;;;;;5118332;28;20054;-32
2022/01/15 05:18:10;;;;;;;14.83;5.13;;;12.90;82.40;;;;;;5101666;29;20044;-31
2022/01/15 05:20:44;;;;;;;11.63;4.57;;;12.90;82.20;;;;;;5111464;28;20071;-30
2022/01/15 05:23:15;;;;;;;14.83;5.97;;;13.00;82.10;;;;;;5121621;28;20047;-32
2022/01/15 05:25:46;;;;;;;9.73;4.77;;;13.00;82.20;;;;;;5097503;29;20418;-30
2022/01/15 05:28:17;;;;;;;15.80;5.67;;;13.00;82.20;;;;;;5108494;28;20047;-30
2022/01/15 05:30:48;;;;;;;14.67;6.37;;;13.00;81.90;;;;;;5121086;28;20039;-31
2022/01/15 05:33:19;;;;;;;18.03;7.87;;;13.10;81.90;;;;;;5122679;28;20039;-29
2022/01/15 05:35:50;;;;;;;15.27;4.93;;;13.10;81.70;;;;;;5115079;28;20051;-30
2022/01/15 05:38:21;;;;;;;13.63;5.73;;;13.20;81.70;;;;;;5102432;28;20111;-31
2022/01/15 05:40:52;;;;;;;15.37;4.97;;;13.20;81.50;;;;;;5096931;29;20058;-30
2022/01/15 05:43:23;;;;;;;10.67;3.97;;;13.20;81.40;;;;;;5101949;28;20094;-31
2022/01/15 05:45:54;;;;;;;11.97;5.23;;;13.20;82.10;;;;;;5107925;28;20058;-30
2022/01/15 05:48:25;;;;;;;13.60;5.53;;;13.20;81.30;;;;;;5119313;28;20530;-33
2022/01/15 05:50:56;;;;;;;14.73;6.07;;;13.20;81.50;;;;;;5107263;28;20521;-31
2022/01/15 05:53:27;;;;;;;18.03;5.50;;;13.20;81.50;;;;;;5106282;28;20062;-32
2022/01/15 05:55:59;;;;;;;14.47;6.13;;;13.10;81.50;;;;;;5118857;28;20772;-30
2022/01/15 05:58:29;;;;;;;13.40;4.73;;;13.20;81.60;;;;;;5102856;29;20082;-30
2022/01/15 06:01:00;;;;;;;12.70;4.80;;;13.20;81.60;;;;;;5099836;28;20405;-31
2022/01/15 06:03:31;;;;;;;11.30;4.47;;;13.30;81.60;;;;;;5106362;29;20043;-29
2022/01/15 06:06:03;;;;;;;14.27;4.97;;;13.40;81.40;;;;;;5118631;28;20043;-31
2022/01/15 06:08:34;;;;;;;13.80;6.50;;;13.50;80.90;;;;;;5120076;28;20199;-31
2022/01/15 06:11:05;;;;;;;13.00;5.00;;;13.70;80.60;;;;;;5120368;28;20055;-31
2022/01/15 06:13:36;;;;;;;11.70;4.83;;;13.80;80.40;;;;;;5120719;28;20062;-29
2022/01/15 06:16:07;;;;;;;11.70;4.70;;;13.80;80.10;;;;;;5105101;28;20110;-32
2022/01/15 06:18:38;;;;;;;12.37;5.53;;;13.90;80.00;;;;;;5116764;28;20062;-31
2022/01/15 06:21:09;;;;;;;9.93;4.27;;;13.90;79.80;;;;;;5121417;28;20046;-30
2022/01/15 06:23:40;;;;;;;22.43;14.57;;;13.90;79.80;;;;;;5105338;29;20409;-30
2022/01/15 06:26:12;;;;;;;17.80;9.17;;;14.00;79.70;;;;;;5111955;28;20094;-31
2022/01/15 06:28:43;;;;;;;15.03;7.87;;;13.90;79.50;;;;;;5098309;28;20043;-32
2022/01/15 06:31:15;;;;;;;25.10;14.40;;;13.90;79.60;;;;;;5109645;28;20051;-31
2022/01/15 06:33:46;;;;;;;27.50;16.10;;;13.90;79.60;;;;;;5114279;28;20500;-30
2022/01/15 06:36:17;;;;;;;35.93;25.83;;;13.90;79.70;;;;;;5091340;28;20402;-30
2022/01/15 06:38:48;;;;;;;31.60;22.93;;;13.90;79.40;;;;;;5116056;28;20051;-30
2022/01/15 06:41:19;;;;;;;27.10;17.10;;;13.90;79.60;;;;;;5110528;28;20062;-32
2022/01/15 06:43:50;;;;;;;24.57;12.33;;;13.80;79.60;;;;;;5117401;28;20044;-31
2022/01/15 06:46:22;;;;;;;25.00;14.20;;;13.90;79.70;;;;;;5111284;28;20043;-30
2022/01/15 06:48:52;;;;;;;27.30;17.97;;;13.90;79.60;;;;;;5115094;28;20043;-30
2022/01/15 06:51:25;;;;;;;29.47;18.80;;;13.80;79.70;;;;;;5108728;28;20055;-31
2022/01/15 06:53:56;;;;;;;41.40;23.50;;;13.90;79.80;;;;;;5114250;28;20473;-29
2022/01/15 06:56:27;;;;;;;23.97;12.57;;;13.90;79.70;;;;;;5113787;28;20051;-30
2022/01/15 06:58:59;;;;;;;30.03;18.13;;;13.80;79.70;;;;;;5102611;29;20048;-30
2022/01/15 07:01:30;;;;;;;23.23;13.57;;;13.80;79.80;;;;;;5114225;28;20397;-31
2022/01/15 07:04:01;;;;;;;24.50;13.87;;;13.80;79.80;;;;;;5110868;28;20048;-32
2022/01/15 07:06:32;;;;;;;17.33;8.70;;;13.80;79.80;;;;;;5106541;28;20043;-31
2022/01/15 07:09:03;;;;;;;21.80;12.73;;;13.80;79.90;;;;;;5095961;29;20417;-31
2022/01/15 07:11:34;;;;;;;18.97;10.30;;;13.70;80.00;;;;;;5111239;28;20050;-30
2022/01/15 07:14:05;;;;;;;22.50;14.07;;;13.70;79.90;;;;;;5119342;28;20493;-30
2022/01/15 07:16:36;;;;;;;62.70;53.47;;;13.70;80.00;;;;;;5126115;29;20103;-31
2022/01/15 07:19:07;;;;;;;22.77;15.97;;;13.70;80.00;;;;;;5126255;29;20096;-31
2022/01/15 07:21:38;;;;;;;15.50;10.30;;;13.60;80.10;;;;;;5126365;29;20063;-30
2022/01/15 07:24:11;;;;;;;17.03;10.40;;;13.60;80.10;;;;;;5125981;28;20442;-29
2022/01/15 07:26:43;;;;;;;19.70;8.90;;;13.50;80.20;;;;;;5109213;28;20402;-30
2022/01/15 07:29:15;;;;;;;17.20;12.17;;;13.50;80.20;;;;;;5126030;29;20516;-31
2022/01/15 07:31:47;;;;;;;17.92;11.77;;;13.50;80.30;;;;;;5126445;29;20497;-32
2022/01/15 07:34:19;;;;;;;16.40;9.13;;;13.40;80.50;;;;;;5108710;29;20039;-30
2022/01/15 07:36:54;;;;;;;17.85;10.13;;;13.40;80.60;;;;;;5108155;29;20035;-30
2022/01/15 07:39:26;;;;;;;16.83;8.73;;;13.40;80.90;;;;;;5125995;29;20158;-29
2022/01/15 07:41:57;;;;;;;20.73;10.47;;;13.40;81.10;;;;;;5126074;29;20055;-30
2022/01/15 07:44:28;;;;;;;19.63;10.23;;;13.40;81.10;;;;;;5093248;29;20043;-30
2022/01/15 07:46:59;;;;;;;89.10;54.70;;;13.40;81.20;;;;;;5125984;29;20078;-32
2022/01/15 07:49:32;;;;;;;153.37;105.83;;;13.40;81.20;;;;;;5128014;28;20078;-31
2022/01/15 07:52:03;;;;;;;45.40;31.50;;;13.50;81.20;;;;;;5130058;29;20126;-31
2022/01/15 07:54:34;;;;;;;18.53;7.90;;;13.70;81.00;;;;;;5111185;29;20159;-30
2022/01/15 07:57:05;;;;;;;21.57;14.00;;;13.80;81.00;;;;;;5128879;29;20047;-32
2022/01/15 07:59:36;;;;;;;25.00;14.03;;;13.90;80.90;;;;;;5128774;29;20453;-29
2022/01/15 08:02:07;;;;;;;22.47;11.30;;;14.00;81.00;;;;;;5129556;29;20059;-29
2022/01/15 08:04:39;;;;;;;20.07;9.07;;;14.20;80.90;;;;;;5129296;29;20051;-30
2022/01/15 08:07:10;;;;;;;;;;;14.30;80.70;;;;;;5129974;29;20058;-31
2022/01/15 08:09:40;;;;;;;;;;;14.30;80.50;;;;;;5129944;29;20272;-31
2022/01/15 08:12:11;;;;;;;;;;;14.40;81.60;;;;;;5129778;29;19985;-30
2022/01/15 08:14:42;;;;;;;;;;;14.40;80.60;;;;;;5129873;29;19958;-31
2022/01/15 08:17:13;;;;;;;;;;;14.50;80.40;;;;;;5129701;29;19930;-30
2022/01/15 08:19:44;;;;;;;;;;;14.50;80.30;;;;;;5129830;29;20094;-30
2022/01/15 08:22:15;;;;;;;;;;;14.60;80.20;;;;;;5112756;29;19945;-30
2022/01/15 08:24:46;;;;;;;;;;;14.60;80.50;;;;;;5128808;29;19926;-32
2022/01/15 08:27:17;;;;;;;;;;;14.60;80.40;;;;;;5129593;29;20053;-31
2022/01/15 08:29:47;;;;;;;;;;;14.60;80.20;;;;;;5129514;29;20012;-30
2022/01/15 08:32:18;;;;;;;23.80;12.13;;;14.60;80.20;;;;;;5129402;29;20313;-29
2022/01/15 08:34:49;;;;;;;25.20;11.40;;;14.60;80.30;;;;;;5128714;29;20054;-32
2022/01/15 08:37:20;;;;;;;23.43;9.57;;;14.50;80.20;;;;;;5128938;29;20044;-30
2022/01/15 08:39:51;;;;;;;18.47;8.80;;;14.50;80.20;;;;;;5111924;29;20062;-31
2022/01/15 08:42:22;;;;;;;13.23;5.30;;;14.40;80.50;;;;;;5111319;29;20040;-30
2022/01/15 08:44:54;;;;;;;19.73;9.20;;;14.40;80.60;;;;;;5128706;29;20082;-30
2022/01/15 08:47:25;;;;;;;24.03;11.10;;;14.40;80.90;;;;;;5128798;29;20051;-32
2022/01/15 08:49:56;;;;;;;20.70;9.33;;;14.40;81.00;;;;;;5127624;29;20044;-30
2022/01/15 08:52:27;;;;;;;20.50;8.17;;;14.30;81.10;;;;;;5111385;29;20420;-32
2022/01/15 08:54:58;;;;;;;16.83;6.77;;;14.20;81.30;;;;;;5128978;29;20043;-31
2022/01/15 08:57:29;;;;;;;24.83;10.87;;;14.20;81.40;;;;;;5128696;29;20390;-31
2022/01/15 09:00:00;;;;;;;18.27;7.40;;;14.10;81.50;;;;;;5110911;28;20062;-31
2022/01/15 09:02:31;;;;;;;19.47;8.60;;;14.10;81.70;;;;;;5110686;29;20047;-30
2022/01/15 09:05:03;;;;;;;19.70;8.90;;;14.10;81.90;;;;;;5128356;29;20398;-32
2022/01/15 09:07:34;;;;;;;24.53;9.63;;;14.10;82.30;;;;;;5128374;29;20048;-31
2022/01/15 09:10:05;;;;;;;19.87;9.47;;;14.10;82.10;;;;;;5128257;29;20102;-32
2022/01/15 09:12:36;;;;;;;13.07;5.53;;;14.10;82.10;;;;;;5127545;29;20051;-29
2022/01/15 09:15:07;;;;;;;21.57;8.20;;;14.00;82.20;;;;;;5127658;29;20523;-30
2022/01/15 09:17:38;;;;;;;31.37;13.20;;;14.00;82.20;;;;;;5110615;29;20047;-31
2022/01/15 09:20:10;;;;;;;22.93;8.80;;;14.00;82.40;;;;;;5128181;29;20388;-30
2022/01/15 09:22:41;;;;;;;29.27;14.50;;;14.00;82.50;;;;;;5111694;29;20094;-31
2022/01/15 09:25:12;;;;;;;19.13;8.20;;;14.00;82.70;;;;;;5127970;29;20071;-32
2022/01/15 09:30:33;;;;;;;20.67;10.27;;;13.90;82.60;;;;;;5127828;29;20047;-31
2022/01/15 09:33:04;;;;;;;24.73;11.07;;;13.90;82.70;;;;;;5127922;29;20048;-31
2022/01/15 09:35:37;;;;;;;24.00;10.67;;;13.90;83.00;;;;;;5110418;29;20047;-30
2022/01/15 09:38:08;;;;;;;18.50;6.80;;;13.90;82.80;;;;;;5127582;29;20102;-32
2022/01/15 09:40:40;;;;;;;22.57;10.77;;;13.80;82.90;;;;;;5126602;29;20043;-30
2022/01/15 09:43:13;;;;;;;19.38;9.18;;;13.80;82.90;;;;;;5127669;29;20051;-30
2022/01/15 09:45:44;;;;;;;30.70;16.83;;;13.80;83.60;;;;;;5127625;29;20536;-31
2022/01/15 09:48:17;;;;;;;36.03;19.80;;;13.80;83.00;;;;;;5127372;29;20489;-30
2022/01/15 09:50:48;;;;;;;21.15;10.75;;;13.80;83.00;;;;;;5111050;29;20054;-31
2022/01/15 09:53:20;;;;;;;20.17;8.70;;;13.80;83.10;;;;;;5127325;29;20047;-30
2022/01/15 09:55:52;;;;;;;32.67;15.67;;;13.80;83.00;;;;;;5110353;29;20043;-30
2022/01/15 09:58:23;;;;;;;32.08;12.50;;;13.70;83.30;;;;;;5127341;29;20516;-30
2022/01/15 10:00:54;;;;;;;27.87;10.40;;;13.60;83.10;;;;;;5110042;29;20055;-32
2022/01/15 10:03:25;;;;;;;18.43;8.03;;;13.60;83.20;;;;;;5127263;29;20052;-30
2022/01/15 10:05:56;;;;;;;28.40;12.27;;;13.60;83.20;;;;;;5127353;29;20039;-29
2022/01/15 10:08:28;;;;;;;27.23;13.17;;;13.60;83.30;;;;;;5127477;29;20043;-31
2022/01/15 10:11:01;;;;;;;19.77;8.37;;;13.60;83.30;;;;;;5127074;29;20078;-31
2022/01/15 10:13:35;;;;;;;16.90;8.57;;;13.60;83.10;;;;;;5126414;28;20525;-30
2022/01/15 10:16:05;;;;;;;19.03;10.80;;;13.50;83.30;;;;;;5110203;29;20071;-32
2022/01/15 10:18:45;;;;;;;20.30;9.23;;;13.60;83.00;;;;;;5126677;29;20050;-31
2022/01/15 10:21:29;;;;;;;32.40;19.37;;;13.50;83.20;;;;;;5109638;29;20054;-30
2022/01/15 10:24:01;;;;;;;21.60;10.10;;;13.60;83.40;;;;;;5127216;29;20402;-29
2022/01/15 10:26:35;;;;;;;22.67;11.97;;;13.60;83.30;;;;;;5126783;29;20078;-30
2022/01/15 10:29:07;;;;;;;24.90;12.37;;;13.60;83.50;;;;;;5126831;29;20497;-30
2022/01/15 10:31:39;;;;;;;22.70;11.27;;;13.50;83.30;;;;;;5109650;29;20057;-30
2022/01/15 10:34:32;;;;;;;14.68;6.55;;;13.50;83.40;;;;;;5094212;29;20043;-30
2022/01/15 10:37:12;;;;;;;25.50;12.70;;;13.50;83.40;;;;;;5109848;29;20051;-31
2022/01/15 10:39:57;;;;;;;27.70;11.87;;;13.50;83.60;;;;;;5109616;29;20055;-32
2022/01/15 10:42:28;;;;;;;16.90;7.97;;;13.60;83.80;;;;;;5109690;29;20035;-30
2022/01/15 10:45:07;;;;;;;20.93;9.30;;;13.50;83.90;;;;;;5126556;29;20059;-32
2022/01/15 10:47:46;;;;;;;24.77;11.20;;;13.50;83.70;;;;;;5126437;29;20094;-33
2022/01/15 10:50:30;;;;;;;28.17;14.20;;;13.50;83.80;;;;;;5109721;29;20044;-30
2022/01/15 10:53:06;;;;;;;19.10;8.20;;;13.50;83.70;;;;;;5109699;29;20052;-29
2022/01/15 10:55:39;;;;;;;14.07;6.00;;;13.50;83.80;;;;;;5125468;29;20374;-32
2022/01/15 10:58:11;;;;;;;14.57;7.07;;;13.40;83.50;;;;;;5125518;29;20050;-30
2022/01/15 11:00:46;;;;;;;14.90;6.05;;;13.40;83.50;;;;;;5093972;29;20090;-31
2022/01/15 11:03:17;;;;;;;14.97;8.07;;;13.40;83.30;;;;;;5126319;29;20117;-31
2022/01/15 11:05:50;;;;;;;12.07;4.93;;;13.40;83.70;;;;;;5109302;29;20062;-31
2022/01/15 11:08:28;;;;;;;14.83;5.13;;;13.40;84.10;;;;;;5093625;29;20405;-31
2022/01/15 11:11:01;;;;;;;9.20;4.40;;;13.20;83.60;;;;;;5108153;29;20059;-31
2022/01/15 11:13:34;;;;;;;22.17;11.90;;;13.30;83.60;;;;;;5125891;29;20105;-31
2022/01/15 11:16:08;;;;;;;19.05;9.38;;;13.30;83.60;;;;;;5126034;29;20171;-31
2022/01/15 11:18:40;;;;;;;18.60;8.77;;;13.30;83.90;;;;;;5126176;29;20054;-30
2022/01/15 11:21:15;;;;;;;24.47;10.67;;;13.30;84.10;;;;;;5126258;29;20067;-31
2022/01/15 11:23:46;;;;;;;;;;;13.30;84.10;;;;;;5109721;29;20051;-31
2022/01/15 11:26:23;;;;;;;33.37;23.73;;;13.30;84.10;;;;;;5129869;29;19929;-31
2022/01/15 11:28:55;;;;;;;14.23;7.13;;;13.20;84.00;;;;;;5130153;29;20055;-30
2022/01/15 11:31:29;;;;;;;15.40;6.70;;;13.20;83.90;;;;;;5130216;29;20043;-30
2022/01/15 11:34:02;;;;;;;11.00;4.50;;;13.20;84.30;;;;;;5092216;29;20443;-31
2022/01/15 11:36:43;;;;;;;17.03;6.63;;;13.10;84.10;;;;;;5107851;29;20051;-30
2022/01/15 11:39:18;;;;;;;31.50;16.17;;;13.10;83.90;;;;;;5108226;29;20052;-30
2022/01/15 11:41:53;;;;;;;22.57;13.13;;;13.10;84.20;;;;;;5092544;29;20044;-30
2022/01/15 11:44:31;;;;;;;45.40;26.53;;;13.10;84.30;;;;;;5092718;29;20548;-31
2022/01/15 11:47:25;;;;;;;27.27;15.90;;;13.10;84.30;;;;;;5107730;29;20144;-30
2022/01/15 11:49:59;;;;;;;16.67;9.83;;;12.70;84.90;;;;;;5092734;29;20051;-29
2022/01/15 11:52:30;;;;;;;25.55;14.57;;;11.40;87.70;;;;;;5107805;29;20498;-30
2022/01/15 11:55:05;;;;;;;50.00;26.43;;;10.60;90.20;;;;;;5107650;29;20048;-30
2022/01/15 11:57:46;;;;;;;27.00;15.40;;;10.30;90.80;;;;;;5107455;29;20056;-29
2022/01/15 12:00:21;;;;;;;18.00;8.87;;;10.00;90.90;;;;;;5107799;29;20490;-30
2022/01/15 12:03:08;;;;;;;22.50;13.87;;;9.80;91.10;;;;;;5107486;29;20130;-31
2022/01/15 12:05:41;;;;;;;29.60;17.40;;;9.70;91.20;;;;;;5107213;29;20522;-30
2022/01/15 12:08:12;;;;;;;12.73;6.95;;;9.60;91.30;;;;;;5107195;29;20131;-30
2022/01/15 12:10:45;;;;;;;12.30;6.17;;;9.50;91.50;;;;;;5096962;29;20059;-30
2022/01/15 12:13:21;;;;;;;24.02;14.95;;;9.40;91.60;;;;;;5129114;29;20052;-30
2022/01/15 12:16:13;;;;;;;15.43;9.40;;;9.40;91.90;;;;;;5129128;29;20051;-30
2022/01/15 12:18:50;;;;;;;17.00;9.00;;;9.40;92.20;;;;;;5129068;29;20054;-30
2022/01/15 12:21:42;;;;;;;17.77;9.53;;;9.30;92.00;;;;;;5111791;29;20051;-29
2022/01/15 12:24:36;;;;;;;15.73;10.07;;;9.30;92.00;;;;;;5128932;29;20050;-29
2022/01/15 12:27:10;;;;;;;11.13;6.93;;;9.20;92.00;;;;;;5128100;29;20050;-30
2022/01/15 12:29:42;;;;;;;15.47;7.87;;;9.20;92.20;;;;;;5129116;29;20485;-31
2022/01/15 12:32:29;;;;;;;14.10;7.67;;;9.20;92.10;;;;;;5112051;29;20051;-31
2022/01/15 12:35:00;;;;;;;12.77;7.10;;;9.10;92.20;;;;;;5128577;28;20047;-30
2022/01/15 12:37:32;;;;;;;12.77;6.83;;;9.10;92.30;;;;;;5127682;29;20047;-31
2022/01/15 12:40:06;;;;;;;13.30;6.60;;;9.00;92.00;;;;;;5128674;29;20051;-30
2022/01/15 12:42:37;;;;;;;;;;;9.00;92.10;;;;;;5128916;29;20410;-30
2022/01/15 12:45:18;;;;;;;12.20;6.30;;;9.00;92.20;;;;;;5110623;29;19945;-29
2022/01/15 12:47:49;;;;;;;13.60;6.80;;;9.00;91.90;;;;;;5128100;29;20052;-30
2022/01/15 12:50:20;;;;;;;10.43;5.47;;;9.00;92.00;;;;;;5125840;29;20051;-31
2022/01/15 12:53:01;;;;;;;18.17;9.80;;;9.00;91.80;;;;;;5115770;28;20052;-30
2022/01/15 12:55:35;;;;;;;61.53;39.43;;;9.00;91.90;;;;;;5125557;29;20486;-31
2022/01/15 12:58:07;;;;;;;21.07;13.73;;;9.00;92.20;;;;;;5126108;28;20039;-30
2022/01/15 13:00:39;;;;;;;14.37;6.77;;;9.10;92.10;;;;;;5125672;28;20085;-31
2022/01/15 13:03:12;;;;;;;19.17;10.37;;;9.00;92.10;;;;;;5125559;28;20409;-31
2022/01/15 13:05:51;;;;;;;13.83;6.27;;;9.10;92.10;;;;;;5118385;28;20375;-30
2022/01/15 13:08:34;;;;;;;19.80;11.33;;;9.00;92.10;;;;;;5120879;28;20070;-31
2022/01/15 13:11:09;;;;;;;14.65;9.32;;;9.00;91.80;;;;;;5126325;28;20047;-31
2022/01/15 13:13:47;;;;;;;11.17;7.40;;;9.00;92.10;;;;;;5125906;28;20218;-30
2022/01/15 13:16:20;;;;;;;30.77;17.67;;;9.00;91.70;;;;;;5093906;28;20047;-30
2022/01/15 13:18:58;;;;;;;25.23;14.63;;;9.00;91.70;;;;;;5093392;29;20047;-30
2022/01/15 13:21:34;;;;;;;20.03;11.77;;;9.00;92.10;;;;;;5109297;28;20069;-31
2022/01/15 13:24:11;;;;;;;10.20;6.00;;;9.00;91.80;;;;;;5125914;28;20043;-30
2022/01/15 13:26:46;;;;;;;12.93;6.37;;;9.00;91.70;;;;;;5125592;28;20548;-30
2022/01/15 13:29:19;;;;;;;10.80;6.00;;;8.90;91.90;;;;;;5126151;28;20437;-30
2022/01/15 13:31:51;;;;;;;12.93;7.32;;;8.90;91.90;;;;;;5108765;28;20486;-30
2022/01/15 13:34:33;;;;;;;16.67;9.33;;;8.90;91.90;;;;;;5125602;28;20507;-30
2022/01/15 13:37:09;;;;;;;21.63;12.25;;;8.90;91.60;;;;;;5125412;28;20031;-31
2022/01/15 13:39:41;;;;;;;15.93;10.60;;;8.90;91.70;;;;;;5125865;28;20068;-31